createdAt,value
2018-03-02T00:00:32.330Z,19.90
2018-03-02T00:03:05.976Z,21.40
2018-03-02T00:05:39.551Z,21.45
2018-03-02T00:08:13.080Z,21.33
2018-03-02T00:10:46.806Z,22.25
2018-03-02T00:13:20.387Z,21.73
2018-03-02T00:15:54.020Z,23.83
2018-03-02T00:18:27.658Z,20.98
2018-03-02T00:21:02.082Z,20.70
2018-03-02T00:23:36.602Z,21.67
2018-03-02T00:26:10.213Z,20.70
2018-03-02T00:28:44.625Z,21.50
2018-03-02T00:31:18.249Z,21.90
2018-03-02T00:33:51.897Z,20.00
2018-03-02T00:36:25.656Z,20.42
2018-03-02T00:39:00.144Z,22.80
2018-03-02T00:41:34.498Z,22.17
2018-03-02T00:44:08.058Z,19.33
2018-03-02T00:46:42.410Z,22.17
2018-03-02T00:49:16.097Z,20.73
2018-03-02T00:51:49.825Z,24.35
2018-03-02T00:54:24.218Z,26.05
2018-03-02T00:56:57.806Z,22.77
2018-03-02T00:59:31.418Z,20.83
2018-03-02T01:02:05.020Z,20.58
2018-03-02T01:04:39.339Z,21.37
2018-03-02T01:07:12.950Z,22.48
2018-03-02T01:09:46.632Z,21.73
2018-03-02T01:12:20.331Z,22.98
2018-03-02T01:14:54.861Z,21.70
2018-03-02T01:17:28.424Z,20.52
2018-03-02T01:20:01.934Z,22.30
2018-03-02T01:22:36.503Z,21.42
2018-03-02T01:25:10.090Z,19.73
2018-03-02T01:27:44.536Z,21.83
2018-03-02T01:30:18.043Z,23.35
2018-03-02T01:32:51.714Z,22.05
2018-03-02T01:35:25.397Z,24.15
2018-03-02T01:37:58.960Z,22.17
2018-03-02T01:40:32.641Z,21.67
2018-03-02T01:43:06.235Z,21.12
2018-03-02T01:45:39.915Z,21.90
2018-03-02T01:48:13.520Z,22.42
2018-03-02T01:50:47.225Z,22.37
2018-03-02T01:53:20.818Z,24.85
2018-03-02T01:55:55.243Z,27.23
2018-03-02T01:58:28.804Z,19.80
2018-03-02T02:01:03.160Z,22.30
2018-03-02T02:03:36.761Z,19.85
2018-03-02T02:06:10.339Z,21.10
2018-03-02T02:08:44.023Z,22.77
2018-03-02T02:11:17.654Z,22.73
2018-03-02T02:13:51.180Z,21.10
2018-03-02T02:16:24.757Z,22.33
2018-03-02T02:18:59.072Z,20.20
2018-03-02T02:21:32.679Z,22.02
2018-03-02T02:24:06.358Z,21.58
2018-03-02T02:26:40.152Z,20.20
2018-03-02T02:29:13.747Z,21.95
2018-03-02T02:31:47.377Z,20.77
2018-03-02T02:34:20.962Z,21.65
2018-03-02T02:36:55.314Z,21.08
2018-03-02T02:39:28.848Z,22.80
2018-03-02T02:42:02.422Z,21.80
2018-03-02T02:44:36.038Z,24.30
2018-03-02T02:47:10.537Z,21.83
2018-03-02T02:49:44.122Z,21.85
2018-03-02T02:52:17.721Z,25.10
2018-03-02T02:54:51.249Z,21.58
2018-03-02T02:57:24.962Z,20.48
2018-03-02T02:59:58.493Z,23.50
2018-03-02T03:02:32.952Z,19.85
2018-03-02T03:05:06.559Z,20.92
2018-03-02T03:07:40.144Z,21.95
2018-03-02T03:10:13.667Z,21.92
2018-03-02T03:12:48.175Z,22.05
2018-03-02T03:15:21.860Z,22.83
2018-03-02T03:17:55.497Z,20.95
2018-03-02T03:20:29.256Z,22.35
2018-03-02T03:23:03.709Z,23.50
2018-03-02T03:25:37.341Z,21.40
2018-03-02T03:28:11.451Z,20.67
2018-03-02T03:30:45.957Z,21.10
2018-03-02T03:33:19.553Z,20.67
2018-03-02T03:35:53.125Z,21.08
2018-03-02T03:38:26.680Z,20.88
2018-03-02T03:41:00.265Z,21.40
2018-03-02T03:43:33.883Z,21.92
2018-03-02T03:46:07.664Z,21.65
2018-03-02T03:48:41.289Z,21.50
2018-03-02T03:51:14.861Z,24.45
2018-03-02T03:53:48.609Z,22.42
2018-03-02T03:56:22.139Z,22.62
2018-03-02T03:58:55.728Z,24.75
2018-03-02T04:01:29.343Z,25.60
2018-03-02T04:04:02.868Z,24.10
2018-03-02T04:06:36.569Z,21.42
2018-03-02T04:09:10.158Z,20.70
2018-03-02T04:11:44.480Z,21.02
2018-03-02T04:14:18.060Z,21.70
2018-03-02T04:16:51.825Z,21.17
2018-03-02T04:19:25.499Z,21.65
2018-03-02T04:21:59.085Z,21.40
2018-03-02T04:24:32.724Z,22.40
2018-03-02T04:27:06.297Z,22.35
2018-03-02T04:29:40.729Z,21.70
2018-03-02T04:32:14.542Z,23.58
2018-03-02T04:34:48.391Z,23.85
2018-03-02T04:37:22.216Z,21.60
2018-03-02T04:39:56.732Z,23.73
2018-03-02T04:42:30.625Z,21.83
2018-03-02T04:45:04.382Z,22.02
2018-03-02T04:47:38.088Z,24.70
2018-03-02T04:50:11.819Z,21.85
2018-03-02T04:52:45.607Z,19.80
2018-03-02T04:55:19.304Z,23.95
2018-03-02T04:57:52.966Z,24.52
2018-03-02T05:00:27.403Z,24.50
2018-03-02T05:03:01.094Z,25.50
2018-03-02T05:05:34.663Z,23.60
2018-03-02T05:08:08.213Z,21.25
2018-03-02T05:10:41.808Z,20.92
2018-03-02T05:13:15.349Z,21.75
2018-03-02T05:15:49.644Z,22.70
2018-03-02T05:18:23.149Z,24.20
2018-03-02T05:20:56.831Z,23.65
2018-03-02T05:23:30.534Z,22.10
2018-03-02T05:26:04.127Z,22.33
2018-03-02T05:28:38.433Z,22.50
2018-03-02T05:31:12.086Z,22.60
2018-03-02T05:33:45.676Z,23.20
2018-03-02T05:36:19.294Z,21.77
2018-03-02T05:38:53.008Z,21.98
2018-03-02T05:41:26.748Z,23.02
2018-03-02T05:44:00.325Z,22.75
2018-03-02T05:46:34.069Z,23.70
2018-03-02T05:49:07.926Z,24.25
2018-03-02T05:51:42.488Z,23.75
2018-03-02T05:54:17.004Z,25.30
2018-03-02T05:56:50.611Z,25.17
2018-03-02T05:59:24.165Z,22.17
2018-03-02T06:01:57.818Z,24.65
2018-03-02T06:04:31.477Z,25.20
2018-03-02T06:07:05.125Z,21.58
2018-03-02T06:09:38.734Z,22.42
2018-03-02T06:12:12.427Z,24.10
2018-03-02T06:14:46.017Z,21.25
2018-03-02T06:17:19.616Z,21.85
2018-03-02T06:19:53.313Z,24.58
2018-03-02T06:22:30.519Z,22.15
2018-03-02T06:25:04.278Z,21.25
2018-03-02T06:27:38.093Z,22.33
2018-03-02T06:30:12.547Z,22.42
2018-03-02T06:32:46.320Z,22.95
2018-03-02T06:35:20.131Z,22.42
2018-03-02T06:37:53.904Z,25.12
2018-03-02T06:40:27.548Z,24.70
2018-03-02T06:43:01.401Z,23.33
2018-03-02T06:45:35.791Z,23.95
2018-03-02T06:48:09.513Z,25.65
2018-03-02T06:50:43.156Z,24.02
2018-03-02T06:53:16.720Z,23.45
2018-03-02T06:55:51.118Z,24.05
2018-03-02T06:58:24.706Z,22.25
2018-03-02T07:00:58.305Z,25.90
2018-03-02T07:03:31.920Z,25.65
2018-03-02T07:06:05.777Z,22.58
2018-03-02T07:08:40.124Z,31.37
2018-03-02T07:11:13.863Z,26.85
2018-03-02T07:13:47.562Z,24.20
2018-03-02T07:16:21.218Z,24.83
2018-03-02T07:18:54.821Z,27.55
2018-03-02T07:21:28.359Z,25.62
2018-03-02T07:24:01.944Z,25.05
2018-03-02T07:26:35.516Z,24.70
2018-03-02T07:29:09.219Z,23.80
2018-03-02T07:31:42.771Z,23.70
2018-03-02T07:34:16.382Z,26.08
2018-03-02T07:36:49.929Z,22.77
2018-03-02T07:39:23.591Z,23.95
2018-03-02T07:41:57.134Z,24.85
2018-03-02T07:44:30.889Z,25.08
2018-03-02T07:47:05.011Z,24.63
2018-03-02T07:49:38.810Z,24.00
2018-03-02T07:52:12.368Z,22.23
2018-03-02T07:54:46.076Z,25.77
2018-03-02T07:57:19.671Z,23.58
2018-03-02T07:59:53.193Z,28.30
2018-03-02T08:02:27.628Z,24.58
2018-03-02T08:05:01.430Z,30.10
2018-03-02T08:07:35.940Z,25.02
2018-03-02T08:10:09.534Z,25.48
2018-03-02T08:12:43.095Z,24.60
2018-03-02T08:15:16.649Z,23.62
2018-03-02T08:17:50.222Z,21.65
2018-03-02T08:20:24.534Z,24.85
2018-03-02T08:22:58.262Z,25.10
2018-03-02T08:25:31.851Z,26.67
2018-03-02T08:28:05.531Z,24.73
2018-03-02T08:30:39.294Z,24.83
2018-03-02T08:33:13.658Z,23.87
2018-03-02T08:35:47.217Z,23.05
2018-03-02T08:38:20.772Z,25.25
2018-03-02T08:40:55.290Z,23.58
2018-03-02T08:43:28.895Z,24.77
2018-03-02T08:46:02.497Z,25.00
2018-03-02T08:48:36.113Z,23.87
2018-03-02T08:51:10.411Z,26.35
2018-03-02T08:53:44.044Z,23.62
2018-03-02T08:56:17.604Z,24.52
2018-03-02T08:58:51.211Z,24.37
2018-03-02T09:01:24.846Z,24.12
2018-03-02T09:03:58.404Z,23.20
2018-03-02T09:06:32.849Z,27.50
2018-03-02T09:09:06.400Z,23.85
2018-03-02T09:11:39.914Z,26.10
2018-03-02T09:14:13.560Z,23.87
2018-03-02T09:16:47.178Z,26.23
2018-03-02T09:19:20.740Z,23.77
2018-03-02T09:21:54.458Z,26.73
2018-03-02T09:24:28.047Z,23.10
2018-03-02T09:27:02.415Z,22.70
2018-03-02T09:29:36.234Z,26.40
2018-03-02T09:32:10.013Z,24.95
2018-03-02T09:34:43.593Z,25.90
2018-03-02T09:37:17.201Z,23.85
2018-03-02T09:39:51.485Z,22.35
2018-03-02T09:42:25.240Z,23.90
2018-03-02T09:44:58.957Z,24.67
2018-03-02T09:47:32.717Z,25.40
2018-03-02T09:50:06.410Z,24.52
2018-03-02T09:52:40.128Z,25.23
2018-03-02T09:55:14.526Z,25.37
2018-03-02T09:57:48.246Z,25.92
2018-03-02T10:00:21.833Z,26.50
2018-03-02T10:02:56.155Z,22.48
2018-03-02T10:05:29.683Z,27.95
2018-03-02T10:08:03.360Z,32.88
2018-03-02T10:10:36.951Z,26.87
2018-03-02T10:13:10.550Z,23.08
2018-03-02T10:15:44.259Z,24.42
2018-03-02T10:18:17.791Z,25.35
2018-03-02T10:20:52.096Z,27.62
2018-03-02T10:23:25.680Z,27.20
2018-03-02T10:25:59.182Z,27.02
2018-03-02T10:28:32.817Z,27.95
2018-03-02T10:31:07.305Z,27.90
2018-03-02T10:33:41.049Z,28.60
2018-03-02T10:36:15.610Z,30.10
2018-03-02T10:38:49.361Z,28.48
2018-03-02T10:41:23.001Z,29.30
2018-03-02T10:43:56.621Z,27.75
2018-03-02T10:46:35.881Z,27.15
2018-03-02T10:49:10.280Z,27.35
2018-03-02T10:51:44.767Z,29.55
2018-03-02T10:54:18.340Z,27.52
2018-03-02T10:56:51.874Z,29.30
2018-03-02T10:59:25.449Z,29.35
2018-03-02T11:02:05.655Z,27.27
2018-03-02T11:04:46.586Z,32.50
2018-03-02T11:07:20.280Z,30.27
2018-03-02T11:09:53.821Z,29.52
2018-03-02T11:12:28.235Z,30.52
2018-03-02T11:15:01.834Z,30.55
2018-03-02T11:17:35.534Z,29.90
2018-03-02T11:20:09.264Z,28.90
2018-03-02T11:22:42.858Z,30.40
2018-03-02T11:25:16.465Z,30.08
2018-03-02T11:27:50.189Z,29.20
2018-03-02T11:30:23.746Z,31.80
2018-03-02T11:32:57.387Z,28.08
2018-03-02T11:35:30.975Z,30.20
2018-03-02T11:38:05.301Z,30.35
2018-03-02T11:40:39.674Z,30.55
2018-03-02T11:43:13.229Z,30.35
2018-03-02T11:45:46.922Z,29.70
2018-03-02T11:48:20.647Z,30.70
2018-03-02T11:50:54.321Z,30.20
2018-03-02T11:53:28.030Z,29.02
2018-03-02T11:56:01.646Z,31.45
2018-03-02T11:58:35.216Z,30.60
2018-03-02T12:01:08.741Z,33.63
2018-03-02T12:03:42.352Z,32.50
2018-03-02T12:06:16.075Z,29.95
2018-03-02T12:08:50.001Z,30.77
2018-03-02T12:11:23.593Z,29.55
2018-03-02T12:13:57.236Z,31.85
2018-03-02T12:16:30.985Z,29.90
2018-03-02T12:19:04.548Z,30.62
2018-03-02T12:21:38.171Z,28.70
2018-03-02T12:24:11.741Z,29.10
2018-03-02T12:26:45.279Z,28.45
2018-03-02T12:29:19.654Z,27.75
2018-03-02T12:31:53.998Z,30.20
2018-03-02T12:34:28.412Z,29.15
2018-03-02T12:37:02.117Z,31.23
2018-03-02T12:39:35.661Z,30.30
2018-03-02T12:42:09.399Z,28.30
2018-03-02T12:44:43.019Z,30.05
2018-03-02T12:47:16.645Z,31.35
2018-03-02T12:49:50.196Z,31.25
2018-03-02T12:52:23.844Z,30.25
2018-03-02T12:54:57.426Z,30.50
2018-03-02T12:57:31.028Z,29.52
2018-03-02T13:00:04.615Z,30.52
2018-03-02T13:02:38.982Z,35.10
2018-03-02T13:05:13.328Z,28.85
2018-03-02T13:07:46.858Z,30.05
2018-03-02T13:10:20.414Z,29.85
2018-03-02T13:12:54.037Z,28.30
2018-03-02T13:15:27.634Z,31.80
2018-03-02T13:18:01.253Z,28.92
2018-03-02T13:20:35.763Z,28.92
2018-03-02T13:23:09.332Z,28.17
2018-03-02T13:25:42.882Z,29.60
2018-03-02T13:31:17.192Z,29.85
2018-03-02T13:34:02.785Z,19.75
2018-03-02T13:36:36.380Z,27.45
2018-03-02T13:39:10.013Z,23.62
2018-03-02T13:41:55.434Z,18.00
2018-03-02T13:44:29.004Z,25.95
2018-03-02T13:47:02.545Z,22.77
2018-03-02T13:49:47.879Z,25.92
2018-03-02T13:52:21.502Z,25.45
2018-03-02T13:54:55.861Z,27.35
2018-03-02T13:57:41.562Z,27.60
2018-03-02T14:00:15.887Z,25.52
2018-03-02T14:03:01.489Z,27.23
2018-03-02T14:05:35.087Z,28.17
2018-03-02T14:08:08.725Z,30.77
2018-03-02T14:10:42.330Z,32.45
2018-03-02T14:13:15.897Z,32.63
2018-03-02T14:15:49.529Z,28.10
2018-03-02T14:18:23.186Z,28.10
2018-03-02T14:20:56.728Z,28.00
2018-03-02T14:23:30.278Z,28.73
2018-03-02T14:26:03.866Z,28.85
2018-03-02T14:28:37.365Z,26.87
2018-03-02T14:31:10.890Z,28.58
2018-03-02T14:33:44.461Z,27.10
2018-03-02T14:36:18.038Z,26.70
2018-03-02T14:38:51.659Z,27.20
2018-03-02T14:41:25.249Z,28.33
2018-03-02T14:43:58.858Z,27.62
2018-03-02T14:46:32.384Z,29.05
2018-03-02T14:49:05.981Z,26.90
2018-03-02T14:51:39.534Z,33.67
2018-03-02T14:54:13.053Z,25.95
2018-03-02T14:56:46.674Z,30.08
2018-03-02T14:59:20.329Z,31.02
2018-03-02T15:01:53.894Z,29.08
2018-03-02T15:04:28.258Z,29.70
2018-03-02T15:07:01.913Z,27.80
2018-03-02T15:09:35.464Z,29.65
2018-03-02T15:12:08.984Z,29.95
2018-03-02T15:14:42.590Z,37.17
2018-03-02T15:17:16.900Z,35.75
2018-03-02T15:19:50.520Z,29.60
2018-03-02T15:22:24.073Z,21.00
2018-03-02T15:24:57.614Z,30.37
2018-03-02T15:27:31.193Z,30.67
2018-03-02T15:30:05.704Z,31.05
2018-03-02T15:32:39.312Z,30.77
2018-03-02T15:35:12.903Z,29.23
2018-03-02T15:37:47.231Z,28.45
2018-03-02T15:40:21.753Z,29.63
2018-03-02T15:42:55.321Z,25.67
2018-03-02T15:45:28.858Z,32.90
2018-03-02T15:48:02.426Z,29.17
2018-03-02T15:50:35.988Z,29.87
2018-03-02T15:53:10.364Z,29.02
2018-03-02T15:55:43.968Z,30.50
2018-03-02T15:58:17.575Z,30.73
2018-03-02T16:00:51.889Z,32.22
2018-03-02T16:03:25.502Z,29.33
2018-03-02T16:05:59.246Z,34.70
2018-03-02T16:08:32.990Z,31.90
2018-03-02T16:11:07.088Z,33.40
2018-03-02T16:13:40.758Z,37.38
2018-03-02T16:16:14.325Z,33.20
2018-03-02T16:18:47.909Z,31.73
2018-03-02T16:21:21.632Z,31.75
2018-03-02T16:23:55.463Z,29.92
2018-03-02T16:26:29.156Z,46.95
2018-03-02T16:29:02.722Z,37.40
2018-03-02T16:31:36.324Z,33.65
2018-03-02T16:34:09.874Z,35.20
2018-03-02T16:36:44.233Z,32.85
2018-03-02T16:39:17.982Z,30.48
2018-03-02T16:41:51.545Z,33.88
2018-03-02T16:44:25.079Z,34.22
2018-03-02T16:46:58.798Z,31.62
2018-03-02T16:49:32.372Z,35.28
2018-03-02T16:52:05.977Z,31.37
2018-03-02T16:54:39.486Z,33.35
2018-03-02T16:57:13.047Z,32.90
2018-03-02T16:59:46.578Z,33.55
2018-03-02T17:02:20.178Z,35.97
2018-03-02T17:04:53.752Z,34.42
2018-03-02T17:07:27.337Z,32.28
2018-03-02T17:10:00.917Z,32.65
2018-03-02T17:12:34.630Z,31.35
2018-03-02T17:15:08.249Z,31.70
2018-03-02T17:17:41.869Z,35.75
2018-03-02T17:20:15.465Z,33.33
2018-03-02T17:22:49.097Z,41.08
2018-03-02T17:25:22.689Z,33.72
2018-03-02T17:27:56.275Z,32.45
2018-03-02T17:30:29.821Z,32.67
2018-03-02T17:33:03.497Z,31.40
2018-03-02T17:35:37.059Z,31.08
2018-03-02T17:38:10.730Z,32.83
2018-03-02T17:40:44.243Z,35.00
2018-03-02T17:43:17.771Z,33.55
2018-03-02T17:45:51.328Z,31.33
2018-03-02T17:48:24.889Z,31.87
2018-03-02T17:50:59.344Z,31.52
2018-03-02T17:53:33.100Z,34.17
2018-03-02T17:56:06.670Z,33.60
2018-03-02T17:58:40.198Z,37.42
2018-03-02T18:01:13.804Z,33.42
2018-03-02T18:03:47.386Z,36.10
2018-03-02T18:06:21.002Z,33.72
2018-03-02T18:08:54.558Z,36.35
2018-03-02T18:11:28.072Z,33.03
2018-03-02T18:14:01.802Z,33.40
2018-03-02T18:16:35.336Z,34.70
2018-03-02T18:19:08.918Z,32.63
2018-03-02T18:21:43.405Z,36.70
2018-03-02T18:24:17.005Z,33.92
2018-03-02T18:26:50.550Z,32.70
2018-03-02T18:29:25.126Z,32.88
2018-03-02T18:31:59.628Z,34.90
2018-03-02T18:34:33.271Z,35.25
2018-03-02T18:37:07.111Z,35.92
2018-03-02T18:39:40.837Z,34.70
2018-03-02T18:42:14.458Z,35.20
2018-03-02T18:44:48.069Z,34.22
2018-03-02T18:47:21.691Z,35.38
2018-03-02T18:49:55.204Z,30.92
2018-03-02T18:52:28.816Z,33.22
2018-03-02T18:55:02.480Z,35.13
2018-03-02T18:57:36.099Z,35.10
2018-03-02T19:00:09.642Z,34.55
2018-03-02T19:02:43.199Z,34.28
2018-03-02T19:05:17.662Z,33.20
2018-03-02T19:07:51.492Z,34.85
2018-03-02T19:10:25.813Z,33.80
2018-03-02T19:13:00.155Z,34.50
2018-03-02T19:15:33.819Z,37.45
2018-03-02T19:18:07.570Z,36.60
2018-03-02T19:20:41.130Z,33.28
2018-03-02T19:23:14.737Z,37.20
2018-03-02T19:25:48.333Z,39.55
2018-03-02T19:28:22.051Z,34.53
2018-03-02T19:30:56.351Z,36.85
2018-03-02T19:33:30.148Z,35.90
2018-03-02T19:36:03.741Z,37.80
2018-03-02T19:38:38.190Z,36.30
2018-03-02T19:41:11.952Z,39.75
2018-03-02T19:43:46.222Z,39.58
2018-03-02T19:46:20.636Z,38.25
2018-03-02T19:48:54.343Z,38.72
2018-03-02T19:51:27.914Z,36.15
2018-03-02T19:54:01.577Z,38.70
2018-03-02T19:56:35.261Z,37.83
2018-03-02T19:59:09.694Z,36.45
2018-03-02T20:01:43.289Z,39.28
2018-03-02T20:04:16.881Z,35.88
2018-03-02T20:06:50.450Z,37.28
2018-03-02T20:09:23.948Z,35.13
2018-03-02T20:11:57.547Z,37.28
2018-03-02T20:14:31.143Z,36.42
2018-03-02T20:17:05.494Z,36.55
2018-03-02T20:19:39.018Z,40.38
2018-03-02T20:22:12.776Z,40.53
2018-03-02T20:24:46.395Z,35.42
2018-03-02T20:27:19.924Z,38.58
2018-03-02T20:29:53.516Z,38.50
2018-03-02T20:32:27.170Z,38.03
2018-03-02T20:35:00.780Z,36.85
2018-03-02T20:37:34.378Z,38.35
2018-03-02T20:40:07.938Z,36.30
2018-03-02T20:42:41.591Z,39.80
2018-03-02T20:45:15.283Z,35.95
2018-03-02T20:47:48.895Z,39.08
2018-03-02T20:50:22.497Z,36.85
2018-03-02T20:52:56.086Z,42.47
2018-03-02T20:55:29.704Z,37.55
2018-03-02T20:58:03.322Z,38.83
2018-03-02T21:00:36.851Z,38.58
2018-03-02T21:03:10.401Z,37.53
2018-03-02T21:05:43.977Z,36.80
2018-03-02T21:08:17.574Z,37.00
2018-03-02T21:10:51.130Z,40.45
2018-03-02T21:13:24.682Z,39.10
2018-03-02T21:15:58.286Z,37.30
2018-03-02T21:18:31.822Z,40.85
2018-03-02T21:21:05.472Z,37.75
2018-03-02T21:23:39.010Z,41.92
2018-03-02T21:26:12.543Z,42.85
2018-03-02T21:28:46.117Z,41.47
2018-03-02T21:31:19.677Z,38.80
2018-03-02T21:33:53.389Z,40.75
2018-03-02T21:36:27.234Z,42.90
2018-03-02T21:39:01.538Z,53.78
2018-03-02T21:41:35.131Z,42.75
2018-03-02T21:44:09.435Z,43.25
2018-03-02T21:46:43.029Z,41.72
2018-03-02T21:49:16.754Z,37.95
2018-03-02T21:51:50.365Z,40.30
2018-03-02T21:54:23.873Z,41.45
2018-03-02T21:56:57.418Z,37.97
2018-03-02T21:59:30.929Z,41.20
2018-03-02T22:02:04.510Z,41.03
2018-03-02T22:04:38.076Z,39.67
2018-03-02T22:07:12.461Z,40.67
2018-03-02T22:09:46.026Z,40.17
2018-03-02T22:12:19.668Z,39.83
2018-03-02T22:14:53.338Z,41.50
2018-03-02T22:17:26.907Z,40.45
2018-03-02T22:20:00.458Z,40.90
2018-03-02T22:22:34.044Z,43.28
2018-03-02T22:25:07.643Z,40.67
2018-03-02T22:27:41.157Z,38.45
2018-03-02T22:30:14.742Z,37.47
2018-03-02T22:32:49.134Z,39.33
2018-03-02T22:35:22.706Z,38.88
2018-03-02T22:37:56.217Z,43.17
2018-03-02T22:40:29.803Z,41.05
2018-03-02T22:43:03.369Z,40.38
2018-03-02T22:45:36.917Z,41.28
2018-03-02T22:48:10.786Z,38.92
2018-03-02T22:50:44.388Z,38.50
2018-03-02T22:53:17.994Z,40.83
2018-03-02T22:55:51.566Z,39.88
2018-03-02T22:58:25.843Z,40.25
2018-03-02T23:00:59.454Z,40.72
2018-03-02T23:03:33.113Z,39.20
2018-03-02T23:06:06.670Z,42.03
2018-03-02T23:08:40.339Z,41.20
2018-03-02T23:11:13.912Z,42.33
2018-03-02T23:13:48.444Z,41.88
2018-03-02T23:16:21.966Z,42.85
2018-03-02T23:18:55.534Z,42.78
2018-03-02T23:21:29.129Z,42.22
2018-03-02T23:24:02.916Z,42.65
2018-03-02T23:26:36.718Z,41.15
2018-03-02T23:29:10.628Z,42.38
2018-03-02T23:31:44.450Z,40.03
2018-03-02T23:34:18.782Z,42.42
2018-03-02T23:36:52.483Z,39.45
2018-03-02T23:39:26.058Z,42.95
2018-03-02T23:41:59.614Z,41.22
2018-03-02T23:44:33.144Z,42.92
2018-03-02T23:47:06.661Z,42.35
2018-03-02T23:49:40.208Z,42.50
2018-03-02T23:52:14.488Z,41.45
2018-03-02T23:54:48.093Z,44.10
2018-03-02T23:57:21.629Z,41.40
2018-03-02T23:59:55.182Z,41.47
